sensor_id;sensor_type;location;lat;lon;timestamp;pressure;altitude;pressure_sealevel;temperature;humidity
71567;BME280;59403;47.456;19.120;2023-02-27T00:02:00;100408.12;;;1.19;64.78
71567;BME280;59403;47.456;19.120;2023-02-27T00:04:27;100415.38;;;1.28;65.04
71567;BME280;59403;47.456;19.120;2023-02-27T00:06:54;100417.22;;;1.26;64.19
71567;BME280;59403;47.456;19.120;2023-02-27T00:09:21;100428.88;;;1.21;65.11
71567;BME280;59403;47.456;19.120;2023-02-27T00:11:49;100442.12;;;1.17;65.08
71567;BME280;59403;47.456;19.120;2023-02-27T00:14:17;100437.13;;;1.14;65.44
71567;BME280;59403;47.456;19.120;2023-02-27T00:16:44;100428.91;;;1.06;65.67
71567;BME280;59403;47.456;19.120;2023-02-27T00:19:11;100437.47;;;1.08;65.60
71567;BME280;59403;47.456;19.120;2023-02-27T00:21:38;100446.91;;;1.11;65.77
71567;BME280;59403;47.456;19.120;2023-02-27T00:24:05;100446.16;;;1.09;66.60
71567;BME280;59403;47.456;19.120;2023-02-27T00:26:32;100441.41;;;1.01;66.70
71567;BME280;59403;47.456;19.120;2023-02-27T00:29:01;100443.81;;;1.04;66.69
71567;BME280;59403;47.456;19.120;2023-02-27T00:31:28;100457.91;;;1.02;66.85
71567;BME280;59403;47.456;19.120;2023-02-27T00:33:55;100452.88;;;0.99;66.97
71567;BME280;59403;47.456;19.120;2023-02-27T00:36:22;100457.03;;;1.01;66.48
71567;BME280;59403;47.456;19.120;2023-02-27T00:38:49;100458.25;;;0.96;66.17
71567;BME280;59403;47.456;19.120;2023-02-27T00:41:16;100464.31;;;0.96;66.55
71567;BME280;59403;47.456;19.120;2023-02-27T00:43:42;100457.50;;;0.94;66.70
71567;BME280;59403;47.456;19.120;2023-02-27T00:46:11;100461.72;;;0.96;66.60
71567;BME280;59403;47.456;19.120;2023-02-27T00:48:37;100468.22;;;0.89;66.77
71567;BME280;59403;47.456;19.120;2023-02-27T00:51:04;100474.19;;;0.91;66.21
71567;BME280;59403;47.456;19.120;2023-02-27T00:53:31;100482.94;;;0.90;66.08
71567;BME280;59403;47.456;19.120;2023-02-27T00:55:58;100477.16;;;0.85;66.74
71567;BME280;59403;47.456;19.120;2023-02-27T00:58:25;100481.81;;;0.80;66.72
71567;BME280;59403;47.456;19.120;2023-02-27T01:00:52;100483.63;;;0.80;67.10
71567;BME280;59403;47.456;19.120;2023-02-27T01:03:20;100488.06;;;0.78;67.42
71567;BME280;59403;47.456;19.120;2023-02-27T01:05:47;100484.81;;;0.74;67.52
71567;BME280;59403;47.456;19.120;2023-02-27T01:08:14;100487.53;;;0.73;67.45
71567;BME280;59403;47.456;19.120;2023-02-27T01:10:41;100497.09;;;0.72;67.59
71567;BME280;59403;47.456;19.120;2023-02-27T01:13:08;100493.75;;;0.70;67.59
71567;BME280;59403;47.456;19.120;2023-02-27T01:15:35;100498.97;;;0.70;67.40
71567;BME280;59403;47.456;19.120;2023-02-27T01:18:02;100493.44;;;0.75;67.34
71567;BME280;59403;47.456;19.120;2023-02-27T01:20:30;100494.50;;;0.72;66.77
71567;BME280;59403;47.456;19.120;2023-02-27T01:22:57;100491.78;;;0.74;67.19
71567;BME280;59403;47.456;19.120;2023-02-27T01:25:24;100487.69;;;0.70;67.68
71567;BME280;59403;47.456;19.120;2023-02-27T01:27:51;100488.63;;;0.69;67.70
71567;BME280;59403;47.456;19.120;2023-02-27T01:30:18;100497.00;;;0.74;67.71
71567;BME280;59403;47.456;19.120;2023-02-27T01:32:45;100497.66;;;0.77;67.68
71567;BME280;59403;47.456;19.120;2023-02-27T01:35:11;100483.63;;;0.80;67.17
71567;BME280;59403;47.456;19.120;2023-02-27T01:37:40;100494.09;;;0.78;67.43
71567;BME280;59403;47.456;19.120;2023-02-27T01:40:09;100486.94;;;0.82;67.03
71567;BME280;59403;47.456;19.120;2023-02-27T01:42:36;100492.09;;;0.83;66.90
71567;BME280;59403;47.456;19.120;2023-02-27T01:45:31;100496.25;;;0.86;66.35
71567;BME280;59403;47.456;19.120;2023-02-27T01:48:04;100492.72;;;0.87;66.96
71567;BME280;59403;47.456;19.120;2023-02-27T01:50:32;100490.19;;;0.85;67.29
71567;BME280;59403;47.456;19.120;2023-02-27T01:53:02;100495.41;;;0.85;66.57
71567;BME280;59403;47.456;19.120;2023-02-27T01:55:32;100496.16;;;0.87;66.96
71567;BME280;59403;47.456;19.120;2023-02-27T01:58:03;100490.75;;;0.90;66.86
71567;BME280;59403;47.456;19.120;2023-02-27T02:00:30;100492.81;;;0.85;67.33
71567;BME280;59403;47.456;19.120;2023-02-27T02:05:48;100510.59;;;0.93;66.67
71567;BME280;59403;47.456;19.120;2023-02-27T02:08:23;100513.31;;;0.91;67.28
71567;BME280;59403;47.456;19.120;2023-02-27T02:10:53;100518.50;;;0.91;66.91
71567;BME280;59403;47.456;19.120;2023-02-27T02:13:21;100521.97;;;0.92;67.05
71567;BME280;59403;47.456;19.120;2023-02-27T02:16:01;100523.28;;;0.99;65.03
71567;BME280;59403;47.456;19.120;2023-02-27T02:21:28;100528.00;;;0.92;65.65
71567;BME280;59403;47.456;19.120;2023-02-27T02:24:32;100533.97;;;0.94;65.27
71567;BME280;59403;47.456;19.120;2023-02-27T02:27:13;100537.50;;;0.93;64.96
71567;BME280;59403;47.456;19.120;2023-02-27T02:33:26;100546.16;;;0.94;64.90
71567;BME280;59403;47.456;19.120;2023-02-27T02:39:38;100546.34;;;0.91;64.80
71567;BME280;59403;47.456;19.120;2023-02-27T02:42:15;100547.19;;;0.91;64.25
71567;BME280;59403;47.456;19.120;2023-02-27T02:44:54;100553.91;;;0.95;64.56
71567;BME280;59403;47.456;19.120;2023-02-27T02:47:32;100552.13;;;0.96;64.38
71567;BME280;59403;47.456;19.120;2023-02-27T02:50:07;100550.44;;;0.95;63.95
71567;BME280;59403;47.456;19.120;2023-02-27T02:52:45;100547.66;;;0.98;64.52
71567;BME280;59403;47.456;19.120;2023-02-27T02:55:20;100558.19;;;0.96;64.74
71567;BME280;59403;47.456;19.120;2023-02-27T02:57:52;100563.28;;;0.98;64.28
71567;BME280;59403;47.456;19.120;2023-02-27T03:00:25;100558.28;;;0.95;64.37
71567;BME280;59403;47.456;19.120;2023-02-27T03:02:58;100556.56;;;0.94;63.84
71567;BME280;59403;47.456;19.120;2023-02-27T03:05:30;100559.94;;;0.96;63.64
71567;BME280;59403;47.456;19.120;2023-02-27T03:08:01;100554.81;;;0.94;63.22
71567;BME280;59403;47.456;19.120;2023-02-27T03:10:34;100557.31;;;0.96;63.45
71567;BME280;59403;47.456;19.120;2023-02-27T03:13:08;100557.31;;;0.96;63.80
71567;BME280;59403;47.456;19.120;2023-02-27T03:15:40;100567.75;;;0.96;63.54
71567;BME280;59403;47.456;19.120;2023-02-27T03:18:15;100565.16;;;0.96;63.91
71567;BME280;59403;47.456;19.120;2023-02-27T03:20:48;100562.37;;;0.99;63.43
71567;BME280;59403;47.456;19.120;2023-02-27T03:23:20;100577.28;;;0.97;63.63
71567;BME280;59403;47.456;19.120;2023-02-27T03:25:50;100587.69;;;0.97;63.08
71567;BME280;59403;47.456;19.120;2023-02-27T03:28:21;100591.12;;;0.97;63.22
71567;BME280;59403;47.456;19.120;2023-02-27T03:30:54;100582.47;;;0.97;63.26
71567;BME280;59403;47.456;19.120;2023-02-27T03:33:27;100585.00;;;0.98;63.10
71567;BME280;59403;47.456;19.120;2023-02-27T03:35:58;100599.87;;;0.96;62.79
71567;BME280;59403;47.456;19.120;2023-02-27T03:38:36;100587.50;;;1.00;63.71
71567;BME280;59403;47.456;19.120;2023-02-27T03:41:11;100588.34;;;1.00;63.16
71567;BME280;59403;47.456;19.120;2023-02-27T03:43:47;100597.94;;;1.00;63.29
71567;BME280;59403;47.456;19.120;2023-02-27T03:46:17;100598.78;;;1.00;63.13
71567;BME280;59403;47.456;19.120;2023-02-27T03:51:17;100607.34;;;1.02;63.27
71567;BME280;59403;47.456;19.120;2023-02-27T03:53:47;100602.97;;;1.03;62.40
71567;BME280;59403;47.456;19.120;2023-02-27T03:56:23;100610.03;;;1.01;63.11
71567;BME280;59403;47.456;19.120;2023-02-27T03:58:51;100606.59;;;1.00;63.57
71567;BME280;59403;47.456;19.120;2023-02-27T04:01:19;100608.28;;;1.01;63.35
71567;BME280;59403;47.456;19.120;2023-02-27T04:03:51;100618.88;;;0.98;62.92
71567;BME280;59403;47.456;19.120;2023-02-27T04:06:14;100605.75;;;1.00;63.09
71567;BME280;59403;47.456;19.120;2023-02-27T04:09:02;100614.44;;;1.00;62.04
71567;BME280;59403;47.456;19.120;2023-02-27T04:11:41;100616.28;;;0.98;62.07
71567;BME280;59403;47.456;19.120;2023-02-27T04:14:24;100613.59;;;1.00;62.11
71567;BME280;59403;47.456;19.120;2023-02-27T04:17:15;100610.03;;;1.01;61.84
71567;BME280;59403;47.456;19.120;2023-02-27T04:20:00;100617.03;;;1.00;61.37
71567;BME280;59403;47.456;19.120;2023-02-27T04:22:35;100615.44;;;0.98;61.43
71567;BME280;59403;47.456;19.120;2023-02-27T04:28:05;100622.25;;;1.00;61.42
71567;BME280;59403;47.456;19.120;2023-02-27T04:30:43;100623.16;;;0.99;61.34
71567;BME280;59403;47.456;19.120;2023-02-27T04:33:13;100628.28;;;1.01;61.08
71567;BME280;59403;47.456;19.120;2023-02-27T04:35:46;100620.47;;;1.01;61.33
71567;BME280;59403;47.456;19.120;2023-02-27T04:38:18;100628.47;;;0.98;61.54
71567;BME280;59403;47.456;19.120;2023-02-27T04:40:50;100623.16;;;0.99;61.55
71567;BME280;59403;47.456;19.120;2023-02-27T04:43:21;100631.91;;;0.98;61.49
71567;BME280;59403;47.456;19.120;2023-02-27T04:45:52;100634.53;;;0.98;61.77
71567;BME280;59403;47.456;19.120;2023-02-27T04:48:23;100629.41;;;0.97;61.94
71567;BME280;59403;47.456;19.120;2023-02-27T04:50:54;100631.06;;;0.98;61.53
71567;BME280;59403;47.456;19.120;2023-02-27T04:53:25;100635.44;;;0.97;60.92
71567;BME280;59403;47.456;19.120;2023-02-27T04:55:56;100638.06;;;0.97;61.27
71567;BME280;59403;47.456;19.120;2023-02-27T04:58:30;100643.34;;;0.96;61.25
71567;BME280;59403;47.456;19.120;2023-02-27T05:01:00;100645.97;;;0.96;60.74
71567;BME280;59403;47.456;19.120;2023-02-27T05:03:32;100640.75;;;0.96;60.98
71567;BME280;59403;47.456;19.120;2023-02-27T05:06:00;100644.31;;;0.95;61.42
71567;BME280;59403;47.456;19.120;2023-02-27T05:08:33;100651.47;;;0.91;60.85
71567;BME280;59403;47.456;19.120;2023-02-27T05:11:06;100653.31;;;0.89;61.29
71567;BME280;59403;47.456;19.120;2023-02-27T05:13:39;100657.69;;;0.89;61.24
71567;BME280;59403;47.456;19.120;2023-02-27T05:16:10;100664.69;;;0.88;60.92
71567;BME280;59403;47.456;19.120;2023-02-27T05:18:40;100658.53;;;0.89;61.08
71567;BME280;59403;47.456;19.120;2023-02-27T05:21:16;100667.28;;;0.88;60.96
71567;BME280;59403;47.456;19.120;2023-02-27T05:24:03;100661.22;;;0.88;60.46
71567;BME280;59403;47.456;19.120;2023-02-27T05:26:44;100670.63;;;0.90;60.86
71567;BME280;59403;47.456;19.120;2023-02-27T05:29:19;100670.06;;;0.85;61.44
71567;BME280;59403;47.456;19.120;2023-02-27T05:31:52;100679.56;;;0.86;61.62
71567;BME280;59403;47.456;19.120;2023-02-27T05:34:22;100688.16;;;0.88;61.14
71567;BME280;59403;47.456;19.120;2023-02-27T05:36:55;100684.78;;;0.86;61.62
71567;BME280;59403;47.456;19.120;2023-02-27T05:39:26;100685.59;;;0.87;60.96
71567;BME280;59403;47.456;19.120;2023-02-27T05:41:58;100692.41;;;0.89;60.75
71567;BME280;59403;47.456;19.120;2023-02-27T05:44:29;100699.28;;;0.90;61.02
71567;BME280;59403;47.456;19.120;2023-02-27T05:46:59;100707.13;;;0.90;61.25
71567;BME280;59403;47.456;19.120;2023-02-27T05:49:30;100704.69;;;0.87;60.67
71567;BME280;59403;47.456;19.120;2023-02-27T05:52:00;100708.06;;;0.89;60.84
71567;BME280;59403;47.456;19.120;2023-02-27T05:54:32;100704.59;;;0.89;60.77
71567;BME280;59403;47.456;19.120;2023-02-27T05:57:02;100712.34;;;0.90;60.72
71567;BME280;59403;47.456;19.120;2023-02-27T05:59:34;100717.53;;;0.90;60.92
71567;BME280;59403;47.456;19.120;2023-02-27T06:02:08;100712.53;;;0.87;61.25
71567;BME280;59403;47.456;19.120;2023-02-27T06:04:35;100719.44;;;0.88;60.88
71567;BME280;59403;47.456;19.120;2023-02-27T06:07:02;100730.56;;;0.90;61.21
71567;BME280;59403;47.456;19.120;2023-02-27T06:09:31;100729.00;;;0.88;61.19
71567;BME280;59403;47.456;19.120;2023-02-27T06:11:59;100729.84;;;0.88;61.58
71567;BME280;59403;47.456;19.120;2023-02-27T06:14:27;100735.06;;;0.88;61.21
71567;BME280;59403;47.456;19.120;2023-02-27T06:16:55;100747.16;;;0.89;61.26
71567;BME280;59403;47.456;19.120;2023-02-27T06:19:24;100751.38;;;0.92;61.44
71567;BME280;59403;47.456;19.120;2023-02-27T06:21:51;100750.53;;;0.91;61.60
71567;BME280;59403;47.456;19.120;2023-02-27T06:24:17;100764.22;;;0.95;61.60
71567;BME280;59403;47.456;19.120;2023-02-27T06:26:45;100763.94;;;0.99;62.04
71567;BME280;59403;47.456;19.120;2023-02-27T06:29:12;100770.03;;;1.00;61.22
71567;BME280;59403;47.456;19.120;2023-02-27T06:31:38;100779.44;;;1.02;60.96
71567;BME280;59403;47.456;19.120;2023-02-27T06:34:07;100788.66;;;1.08;60.46
71567;BME280;59403;47.456;19.120;2023-02-27T06:36:33;100793.06;;;1.07;59.68
71567;BME280;59403;47.456;19.120;2023-02-27T06:39:00;100795.41;;;1.12;59.79
71567;BME280;59403;47.456;19.120;2023-02-27T06:41:27;100803.13;;;1.13;59.30
71567;BME280;59403;47.456;19.120;2023-02-27T06:43:55;100800.19;;;1.20;59.29
71567;BME280;59403;47.456;19.120;2023-02-27T06:46:22;100812.19;;;1.22;59.43
71567;BME280;59403;47.456;19.120;2023-02-27T06:48:49;100804.13;;;1.27;59.53
71567;BME280;59403;47.456;19.120;2023-02-27T06:51:17;100824.63;;;1.33;59.08
71567;BME280;59403;47.456;19.120;2023-02-27T06:53:44;100823.53;;;1.37;58.45
71567;BME280;59403;47.456;19.120;2023-02-27T06:56:11;100822.59;;;1.38;58.08
71567;BME280;59403;47.456;19.120;2023-02-27T06:58:38;100828.22;;;1.46;58.41
71567;BME280;59403;47.456;19.120;2023-02-27T07:01:05;100826.19;;;1.51;58.92
71567;BME280;59403;47.456;19.120;2023-02-27T07:03:32;100829.69;;;1.50;58.00
71567;BME280;59403;47.456;19.120;2023-02-27T07:05:59;100834.81;;;1.51;57.51
71567;BME280;59403;47.456;19.120;2023-02-27T07:08:28;100830.09;;;1.58;57.87
71567;BME280;59403;47.456;19.120;2023-02-27T07:10:55;100833.91;;;1.52;57.11
71567;BME280;59403;47.456;19.120;2023-02-27T07:13:22;100831.53;;;1.63;57.56
71567;BME280;59403;47.456;19.120;2023-02-27T07:15:50;100818.91;;;1.56;56.95
71567;BME280;59403;47.456;19.120;2023-02-27T07:18:17;100835.81;;;1.64;56.13
71567;BME280;59403;47.456;19.120;2023-02-27T07:20:44;100836.28;;;1.71;56.54
71567;BME280;59403;47.456;19.120;2023-02-27T07:23:10;100842.16;;;1.74;56.93
71567;BME280;59403;47.456;19.120;2023-02-27T07:25:39;100846.38;;;1.77;55.86
71567;BME280;59403;47.456;19.120;2023-02-27T07:28:05;100839.19;;;1.80;55.95
71567;BME280;59403;47.456;19.120;2023-02-27T07:30:32;100845.19;;;1.82;55.84
71567;BME280;59403;47.456;19.120;2023-02-27T07:32:59;100844.41;;;1.80;55.08
71567;BME280;59403;47.456;19.120;2023-02-27T07:35:26;100845.44;;;1.78;54.92
71567;BME280;59403;47.456;19.120;2023-02-27T07:37:53;100852.44;;;1.91;54.59
71567;BME280;59403;47.456;19.120;2023-02-27T07:40:20;100849.75;;;1.93;53.68
71567;BME280;59403;47.456;19.120;2023-02-27T07:42:48;100856.56;;;1.95;53.95
71567;BME280;59403;47.456;19.120;2023-02-27T07:45:15;100853.19;;;1.93;53.83
71567;BME280;59403;47.456;19.120;2023-02-27T07:47:43;100855.34;;;2.01;53.88
71567;BME280;59403;47.456;19.120;2023-02-27T07:50:11;100860.94;;;2.09;54.25
71567;BME280;59403;47.456;19.120;2023-02-27T07:52:38;100864.13;;;2.14;53.91
71567;BME280;59403;47.456;19.120;2023-02-27T07:58:08;100865.41;;;2.07;53.80
71567;BME280;59403;47.456;19.120;2023-02-27T08:00:35;100869.31;;;2.00;53.96
71567;BME280;59403;47.456;19.120;2023-02-27T08:03:02;100876.97;;;1.89;53.70
71567;BME280;59403;47.456;19.120;2023-02-27T08:05:29;100872.53;;;2.05;54.07
71567;BME280;59403;47.456;19.120;2023-02-27T08:07:56;100877.53;;;1.94;53.82
71567;BME280;59403;47.456;19.120;2023-02-27T08:10:24;100882.78;;;1.94;54.32
71567;BME280;59403;47.456;19.120;2023-02-27T08:12:51;100887.91;;;2.09;55.15
71567;BME280;59403;47.456;19.120;2023-02-27T08:15:19;100885.03;;;2.14;54.74
71567;BME280;59403;47.456;19.120;2023-02-27T08:17:47;100880.34;;;2.19;54.23
71567;BME280;59403;47.456;19.120;2023-02-27T08:20:14;100888.69;;;2.25;54.14
71567;BME280;59403;47.456;19.120;2023-02-27T08:22:41;100892.03;;;2.13;53.62
71567;BME280;59403;47.456;19.120;2023-02-27T08:25:09;100905.75;;;2.17;53.99
71567;BME280;59403;47.456;19.120;2023-02-27T08:27:37;100908.19;;;2.20;54.49
71567;BME280;59403;47.456;19.120;2023-02-27T08:30:06;100901.91;;;2.22;53.56
71567;BME280;59403;47.456;19.120;2023-02-27T08:32:37;100905.50;;;2.36;54.07
71567;BME280;59403;47.456;19.120;2023-02-27T08:35:05;100911.81;;;2.31;54.04
71567;BME280;59403;47.456;19.120;2023-02-27T08:37:31;100917.50;;;2.38;53.91
71567;BME280;59403;47.456;19.120;2023-02-27T08:39:59;100924.34;;;2.41;53.84
71567;BME280;59403;47.456;19.120;2023-02-27T08:42:26;100936.25;;;2.16;53.21
71567;BME280;59403;47.456;19.120;2023-02-27T08:44:53;100928.91;;;2.37;53.50
71567;BME280;59403;47.456;19.120;2023-02-27T08:47:21;100936.00;;;2.49;53.46
71567;BME280;59403;47.456;19.120;2023-02-27T08:49:49;100938.37;;;2.54;53.32
71567;BME280;59403;47.456;19.120;2023-02-27T08:52:16;100939.75;;;2.59;53.26
71567;BME280;59403;47.456;19.120;2023-02-27T08:54:43;100939.19;;;2.54;52.81
71567;BME280;59403;47.456;19.120;2023-02-27T08:57:09;100947.03;;;2.54;53.31
71567;BME280;59403;47.456;19.120;2023-02-27T08:59:36;100947.50;;;2.61;53.60
71567;BME280;59403;47.456;19.120;2023-02-27T09:02:03;100950.03;;;2.76;53.75
71567;BME280;59403;47.456;19.120;2023-02-27T09:04:30;100951.91;;;2.74;52.76
71567;BME280;59403;47.456;19.120;2023-02-27T09:06:59;100940.12;;;2.67;52.94
71567;BME280;59403;47.456;19.120;2023-02-27T09:09:25;100942.84;;;2.66;52.06
71567;BME280;59403;47.456;19.120;2023-02-27T09:11:53;100938.06;;;2.72;53.03
71567;BME280;59403;47.456;19.120;2023-02-27T09:14:19;100944.63;;;2.79;52.48
71567;BME280;59403;47.456;19.120;2023-02-27T09:16:46;100948.78;;;2.82;52.17
71567;BME280;59403;47.456;19.120;2023-02-27T09:19:13;100948.31;;;3.03;52.93
71567;BME280;59403;47.456;19.120;2023-02-27T09:21:43;100951.50;;;3.08;52.46
71567;BME280;59403;47.456;19.120;2023-02-27T09:24:11;100959.34;;;3.08;52.59
71567;BME280;59403;47.456;19.120;2023-02-27T09:26:38;100951.84;;;3.02;52.26
71567;BME280;59403;47.456;19.120;2023-02-27T09:29:05;100957.09;;;3.02;51.91
71567;BME280;59403;47.456;19.120;2023-02-27T09:31:32;100962.91;;;3.07;52.42
71567;BME280;59403;47.456;19.120;2023-02-27T09:34:06;100961.94;;;3.22;52.60
71567;BME280;59403;47.456;19.120;2023-02-27T09:36:36;100962.87;;;3.21;52.19
71567;BME280;59403;47.456;19.120;2023-02-27T09:39:03;100962.03;;;3.21;52.14
71567;BME280;59403;47.456;19.120;2023-02-27T09:44:44;100958.59;;;3.47;51.61
71567;BME280;59403;47.456;19.120;2023-02-27T09:47:16;100949.84;;;3.34;50.95
71567;BME280;59403;47.456;19.120;2023-02-27T09:49:54;100957.31;;;3.40;50.57
71567;BME280;59403;47.456;19.120;2023-02-27T09:52:23;100957.41;;;3.65;50.66
71567;BME280;59403;47.456;19.120;2023-02-27T09:54:50;100970.50;;;3.65;50.42
71567;BME280;59403;47.456;19.120;2023-02-27T09:57:26;100966.44;;;3.74;49.44
71567;BME280;59403;47.456;19.120;2023-02-27T10:00:04;100970.53;;;3.78;49.76
71567;BME280;59403;47.456;19.120;2023-02-27T10:02:43;100964.84;;;3.98;50.19
71567;BME280;59403;47.456;19.120;2023-02-27T10:05:23;100964.31;;;4.05;50.33
71567;BME280;59403;47.456;19.120;2023-02-27T10:07:58;100972.66;;;3.85;48.88
71567;BME280;59403;47.456;19.120;2023-02-27T10:10:30;100964.97;;;4.09;49.74
71567;BME280;59403;47.456;19.120;2023-02-27T10:13:18;100963.41;;;4.19;49.06
71567;BME280;59403;47.456;19.120;2023-02-27T10:15:52;100958.34;;;3.91;49.39
71567;BME280;59403;47.456;19.120;2023-02-27T10:18:28;100969.00;;;3.88;48.86
71567;BME280;59403;47.456;19.120;2023-02-27T10:20:58;100969.28;;;4.10;49.15
71567;BME280;59403;47.456;19.120;2023-02-27T10:23:32;100968.13;;;4.26;49.19
71567;BME280;59403;47.456;19.120;2023-02-27T10:26:02;100955.44;;;4.33;47.35
71567;BME280;59403;47.456;19.120;2023-02-27T10:28:30;100961.00;;;4.28;47.87
71567;BME280;59403;47.456;19.120;2023-02-27T10:31:00;100963.63;;;4.66;47.80
71567;BME280;59403;47.456;19.120;2023-02-27T10:33:32;100958.63;;;4.63;46.62
71567;BME280;59403;47.456;19.120;2023-02-27T10:36:01;100957.78;;;4.75;46.79
71567;BME280;59403;47.456;19.120;2023-02-27T10:38:32;100955.78;;;4.79;45.97
71567;BME280;59403;47.456;19.120;2023-02-27T10:41:03;100958.94;;;4.46;45.68
71567;BME280;59403;47.456;19.120;2023-02-27T10:43:31;100959.66;;;4.73;46.33
71567;BME280;59403;47.456;19.120;2023-02-27T10:46:01;100962.69;;;4.29;46.57
71567;BME280;59403;47.456;19.120;2023-02-27T10:48:31;100957.25;;;4.45;46.45
71567;BME280;59403;47.456;19.120;2023-02-27T10:51:20;100953.56;;;4.22;47.67
71567;BME280;59403;47.456;19.120;2023-02-27T10:53:47;100957.56;;;4.40;46.86
71567;BME280;59403;47.456;19.120;2023-02-27T10:56:22;100960.81;;;4.31;46.77
71567;BME280;59403;47.456;19.120;2023-02-27T10:59:00;100963.75;;;4.39;46.39
71567;BME280;59403;47.456;19.120;2023-02-27T11:01:40;100948.34;;;4.47;47.10
71567;BME280;59403;47.456;19.120;2023-02-27T11:04:08;100959.66;;;4.86;46.45
71567;BME280;59403;47.456;19.120;2023-02-27T11:06:36;100958.81;;;5.21;46.32
71567;BME280;59403;47.456;19.120;2023-02-27T11:09:16;100959.03;;;5.31;45.61
71567;BME280;59403;47.456;19.120;2023-02-27T11:11:44;100953.75;;;4.95;45.42
71567;BME280;59403;47.456;19.120;2023-02-27T11:14:23;100956.81;;;5.25;45.65
71567;BME280;59403;47.456;19.120;2023-02-27T11:16:53;100960.78;;;5.07;45.99
71567;BME280;59403;47.456;19.120;2023-02-27T11:19:27;100958.50;;;4.90;46.40
71567;BME280;59403;47.456;19.120;2023-02-27T11:22:03;100965.22;;;4.81;46.09
71567;BME280;59403;47.456;19.120;2023-02-27T11:24:30;100964.78;;;4.87;46.83
71567;BME280;59403;47.456;19.120;2023-02-27T11:26:59;100963.00;;;4.88;46.37
71567;BME280;59403;47.456;19.120;2023-02-27T11:29:28;100959.88;;;4.83;46.65
71567;BME280;59403;47.456;19.120;2023-02-27T11:31:58;100969.94;;;4.76;46.51
71567;BME280;59403;47.456;19.120;2023-02-27T11:34:29;100969.63;;;4.68;45.90
71567;BME280;59403;47.456;19.120;2023-02-27T11:36:59;100967.84;;;4.69;45.78
71567;BME280;59403;47.456;19.120;2023-02-27T11:39:38;100970.88;;;4.75;46.14
71567;BME280;59403;47.456;19.120;2023-02-27T11:42:22;100964.75;;;5.12;46.14
71567;BME280;59403;47.456;19.120;2023-02-27T11:44:55;100966.25;;;5.40;46.57
71567;BME280;59403;47.456;19.120;2023-02-27T11:47:27;100957.19;;;5.44;46.13
71567;BME280;59403;47.456;19.120;2023-02-27T11:53:39;100962.22;;;5.83;45.11
71567;BME280;59403;47.456;19.120;2023-02-27T11:56:11;100969.44;;;5.79;44.43
71567;BME280;59403;47.456;19.120;2023-02-27T11:58:44;100960.34;;;5.72;44.78
71567;BME280;59403;47.456;19.120;2023-02-27T12:01:17;100959.72;;;5.93;44.76
71567;BME280;59403;47.456;19.120;2023-02-27T12:03:51;100958.63;;;5.84;44.58
71567;BME280;59403;47.456;19.120;2023-02-27T12:06:25;100960.13;;;5.52;44.68
71567;BME280;59403;47.456;19.120;2023-02-27T12:08:59;100954.00;;;5.51;45.96
71567;BME280;59403;47.456;19.120;2023-02-27T12:11:32;100961.78;;;5.53;45.38
71567;BME280;59403;47.456;19.120;2023-02-27T12:14:02;100958.22;;;5.54;44.84
71567;BME280;59403;47.456;19.120;2023-02-27T12:16:36;100955.50;;;5.66;45.86
71567;BME280;59403;47.456;19.120;2023-02-27T12:19:14;100959.37;;;5.26;45.98
71567;BME280;59403;47.456;19.120;2023-02-27T12:21:43;100953.78;;;5.54;45.58
71567;BME280;59403;47.456;19.120;2023-02-27T12:24:18;100965.84;;;5.33;44.78
71567;BME280;59403;47.456;19.120;2023-02-27T12:26:51;100969.78;;;5.15;45.02
71567;BME280;59403;47.456;19.120;2023-02-27T12:29:26;100973.41;;;5.38;45.55
71567;BME280;59403;47.456;19.120;2023-02-27T12:31:59;100968.53;;;5.44;45.60
71567;BME280;59403;47.456;19.120;2023-02-27T12:34:35;100973.16;;;5.41;45.01
71567;BME280;59403;47.456;19.120;2023-02-27T12:37:09;100977.41;;;5.54;45.37
71567;BME280;59403;47.456;19.120;2023-02-27T12:39:38;100985.09;;;5.57;44.94
71567;BME280;59403;47.456;19.120;2023-02-27T12:42:37;100979.84;;;5.57;44.35
71567;BME280;59403;47.456;19.120;2023-02-27T12:45:19;100984.03;;;5.60;45.06
71567;BME280;59403;47.456;19.120;2023-02-27T12:47:55;100982.72;;;6.02;45.42
71567;BME280;59403;47.456;19.120;2023-02-27T12:50:32;100983.00;;;5.86;44.99
71567;BME280;59403;47.456;19.120;2023-02-27T12:53:12;100989.66;;;6.03;44.99
71567;BME280;59403;47.456;19.120;2023-02-27T12:55:46;100988.94;;;6.01;44.63
71567;BME280;59403;47.456;19.120;2023-02-27T12:58:22;100980.44;;;6.32;45.08
71567;BME280;59403;47.456;19.120;2023-02-27T13:00:56;100980.00;;;6.14;43.85
71567;BME280;59403;47.456;19.120;2023-02-27T13:03:29;100985.41;;;5.89;43.88
71567;BME280;59403;47.456;19.120;2023-02-27T13:06:05;100980.44;;;6.08;44.04
71567;BME280;59403;47.456;19.120;2023-02-27T13:09:02;100983.63;;;5.77;44.60
71567;BME280;59403;47.456;19.120;2023-02-27T13:11:42;100988.56;;;5.82;44.22
71567;BME280;59403;47.456;19.120;2023-02-27T13:14:19;100990.13;;;5.24;44.89
71567;BME280;59403;47.456;19.120;2023-02-27T13:16:55;100989.16;;;5.38;44.87
71567;BME280;59403;47.456;19.120;2023-02-27T13:19:28;100986.28;;;4.92;45.81
71567;BME280;59403;47.456;19.120;2023-02-27T13:22:03;100990.91;;;5.14;46.08
71567;BME280;59403;47.456;19.120;2023-02-27T13:24:42;100995.19;;;5.15;47.03
71567;BME280;59403;47.456;19.120;2023-02-27T13:27:15;100993.63;;;5.12;47.51
71567;BME280;59403;47.456;19.120;2023-02-27T13:29:53;101000.78;;;5.10;47.38
71567;BME280;59403;47.456;19.120;2023-02-27T13:32:24;100996.37;;;4.98;47.12
71567;BME280;59403;47.456;19.120;2023-02-27T13:34:55;101004.25;;;4.98;46.72
71567;BME280;59403;47.456;19.120;2023-02-27T13:37:51;101002.13;;;5.16;46.38
71567;BME280;59403;47.456;19.120;2023-02-27T13:40:36;101001.56;;;5.23;47.28